sensor_id;sensor_type;location;lat;lon;timestamp;pressure;altitude;pressure_sealevel;temperature
19644;BMP180;9970;-36.854;174.870;2024-03-23T00:54:32;101099.00;;;20.60
19644;BMP180;9970;-36.854;174.870;2024-03-23T00:57:06;101103.00;;;20.50
19644;BMP180;9970;-36.854;174.870;2024-03-23T00:59:39;101086.00;;;20.50
19644;BMP180;9970;-36.854;174.870;2024-03-23T01:02:12;101083.00;;;20.50
19644;BMP180;9970;-36.854;174.870;2024-03-23T01:04:48;101082.00;;;20.50
19644;BMP180;9970;-36.854;174.870;2024-03-23T01:07:21;101081.00;;;20.50
19644;BMP180;9970;-36.854;174.870;2024-03-23T01:09:54;101071.00;;;20.60
19644;BMP180;9970;-36.854;174.870;2024-03-23T01:12:27;101076.00;;;20.60
19644;BMP180;9970;-36.854;174.870;2024-03-23T01:15:00;101069.00;;;20.60
19644;BMP180;9970;-36.854;174.870;2024-03-23T01:17:33;101061.00;;;20.70
19644;BMP180;9970;-36.854;174.870;2024-03-23T01:20:07;101061.00;;;20.70
19644;BMP180;9970;-36.854;174.870;2024-03-23T01:22:39;101066.00;;;20.80
19644;BMP180;9970;-36.854;174.870;2024-03-23T01:25:12;101049.00;;;20.80
19644;BMP180;9970;-36.854;174.870;2024-03-23T01:27:45;101046.00;;;20.80
19644;BMP180;9970;-36.854;174.870;2024-03-23T01:30:18;101041.00;;;20.90
19644;BMP180;9970;-36.854;174.870;2024-03-23T01:32:51;101042.00;;;20.90
19644;BMP180;9970;-36.854;174.870;2024-03-23T01:35:24;101031.00;;;20.90
19644;BMP180;9970;-36.854;174.870;2024-03-23T01:37:57;101032.00;;;21.00
19644;BMP180;9970;-36.854;174.870;2024-03-23T01:40:29;101030.00;;;21.00
19644;BMP180;9970;-36.854;174.870;2024-03-23T01:43:06;101034.00;;;21.00
19644;BMP180;9970;-36.854;174.870;2024-03-23T01:45:39;101025.00;;;21.00
19644;BMP180;9970;-36.854;174.870;2024-03-23T01:48:12;101022.00;;;20.90
19644;BMP180;9970;-36.854;174.870;2024-03-23T01:50:46;101022.00;;;20.90
19644;BMP180;9970;-36.854;174.870;2024-03-23T01:53:19;101010.00;;;20.90
19644;BMP180;9970;-36.854;174.870;2024-03-23T01:55:54;101007.00;;;20.80
19644;BMP180;9970;-36.854;174.870;2024-03-23T01:58:27;101003.00;;;20.80
19644;BMP180;9970;-36.854;174.870;2024-03-23T02:01:02;100996.00;;;20.90
19644;BMP180;9970;-36.854;174.870;2024-03-23T02:03:35;101008.00;;;20.80
19644;BMP180;9970;-36.854;174.870;2024-03-23T02:06:08;101014.00;;;20.90
19644;BMP180;9970;-36.854;174.870;2024-03-23T02:08:41;101025.00;;;20.80
19644;BMP180;9970;-36.854;174.870;2024-03-23T02:11:15;101020.00;;;20.80
19644;BMP180;9970;-36.854;174.870;2024-03-23T02:13:48;101024.00;;;20.80
19644;BMP180;9970;-36.854;174.870;2024-03-23T02:16:21;101022.00;;;20.80
19644;BMP180;9970;-36.854;174.870;2024-03-23T02:18:54;101006.00;;;20.70
19644;BMP180;9970;-36.854;174.870;2024-03-23T02:21:27;101011.00;;;20.70
19644;BMP180;9970;-36.854;174.870;2024-03-23T02:24:00;101022.00;;;20.70
19644;BMP180;9970;-36.854;174.870;2024-03-23T02:26:33;101013.00;;;20.70
19644;BMP180;9970;-36.854;174.870;2024-03-23T02:29:06;101004.00;;;20.70
19644;BMP180;9970;-36.854;174.870;2024-03-23T02:31:40;101004.00;;;20.70
19644;BMP180;9970;-36.854;174.870;2024-03-23T02:34:13;101009.00;;;20.70
19644;BMP180;9970;-36.854;174.870;2024-03-23T02:36:46;101006.00;;;20.70
19644;BMP180;9970;-36.854;174.870;2024-03-23T02:39:19;101003.00;;;20.70
19644;BMP180;9970;-36.854;174.870;2024-03-23T02:41:51;101000.00;;;20.70
19644;BMP180;9970;-36.854;174.870;2024-03-23T02:44:24;100999.00;;;20.70
19644;BMP180;9970;-36.854;174.870;2024-03-23T02:46:57;101000.00;;;20.70
19644;BMP180;9970;-36.854;174.870;2024-03-23T02:49:30;100995.00;;;20.70
19644;BMP180;9970;-36.854;174.870;2024-03-23T02:52:07;100998.00;;;20.70
19644;BMP180;9970;-36.854;174.870;2024-03-23T02:54:40;100990.00;;;20.70
19644;BMP180;9970;-36.854;174.870;2024-03-23T02:57:14;100996.00;;;20.70
19644;BMP180;9970;-36.854;174.870;2024-03-23T02:59:47;100999.00;;;20.70
19644;BMP180;9970;-36.854;174.870;2024-03-23T03:02:20;101001.00;;;20.70
19644;BMP180;9970;-36.854;174.870;2024-03-23T03:04:56;101009.00;;;20.70
19644;BMP180;9970;-36.854;174.870;2024-03-23T03:07:30;100994.00;;;20.70
19644;BMP180;9970;-36.854;174.870;2024-03-23T03:10:02;100997.00;;;20.70
19644;BMP180;9970;-36.854;174.870;2024-03-23T03:12:37;100993.00;;;20.70
19644;BMP180;9970;-36.854;174.870;2024-03-23T03:15:11;100992.00;;;20.70
19644;BMP180;9970;-36.854;174.870;2024-03-23T03:17:44;100991.00;;;20.70
19644;BMP180;9970;-36.854;174.870;2024-03-23T03:20:17;100995.00;;;20.70
19644;BMP180;9970;-36.854;174.870;2024-03-23T03:22:50;100991.00;;;20.70
19644;BMP180;9970;-36.854;174.870;2024-03-23T03:25:24;100991.00;;;20.80
19644;BMP180;9970;-36.854;174.870;2024-03-23T03:27:58;100987.00;;;20.70
19644;BMP180;9970;-36.854;174.870;2024-03-23T03:30:31;100994.00;;;20.70
19644;BMP180;9970;-36.854;174.870;2024-03-23T03:33:04;100984.00;;;20.70
19644;BMP180;9970;-36.854;174.870;2024-03-23T03:35:37;100988.00;;;20.70
19644;BMP180;9970;-36.854;174.870;2024-03-23T03:38:09;100995.00;;;20.70
19644;BMP180;9970;-36.854;174.870;2024-03-23T03:40:44;100988.00;;;20.70
19644;BMP180;9970;-36.854;174.870;2024-03-23T03:43:17;100985.00;;;20.70
19644;BMP180;9970;-36.854;174.870;2024-03-23T03:45:59;100983.00;;;20.70
19644;BMP180;9970;-36.854;174.870;2024-03-23T03:48:32;100987.00;;;20.70
19644;BMP180;9970;-36.854;174.870;2024-03-23T03:51:06;100981.00;;;20.70
19644;BMP180;9970;-36.854;174.870;2024-03-23T03:53:39;100977.00;;;20.70
19644;BMP180;9970;-36.854;174.870;2024-03-23T03:56:12;100981.00;;;20.80
19644;BMP180;9970;-36.854;174.870;2024-03-23T03:58:46;100976.00;;;20.80
19644;BMP180;9970;-36.854;174.870;2024-03-23T04:01:18;100969.00;;;20.80
19644;BMP180;9970;-36.854;174.870;2024-03-23T04:03:51;100963.00;;;20.80
19644;BMP180;9970;-36.854;174.870;2024-03-23T04:06:24;100962.00;;;20.80
19644;BMP180;9970;-36.854;174.870;2024-03-23T04:08:57;100956.00;;;20.80
19644;BMP180;9970;-36.854;174.870;2024-03-23T04:11:30;100954.00;;;20.80
19644;BMP180;9970;-36.854;174.870;2024-03-23T04:14:03;100957.00;;;20.70
19644;BMP180;9970;-36.854;174.870;2024-03-23T04:16:36;100955.00;;;20.70
19644;BMP180;9970;-36.854;174.870;2024-03-23T04:19:09;100954.00;;;20.70
19644;BMP180;9970;-36.854;174.870;2024-03-23T04:21:41;100957.00;;;20.70
19644;BMP180;9970;-36.854;174.870;2024-03-23T04:24:14;100960.00;;;20.70
19644;BMP180;9970;-36.854;174.870;2024-03-23T04:26:48;100958.00;;;20.70
19644;BMP180;9970;-36.854;174.870;2024-03-23T04:29:23;100945.00;;;20.70
19644;BMP180;9970;-36.854;174.870;2024-03-23T04:31:59;100942.00;;;20.60
19644;BMP180;9970;-36.854;174.870;2024-03-23T04:34:32;100949.00;;;20.70
19644;BMP180;9970;-36.854;174.870;2024-03-23T04:37:05;100956.00;;;20.70
19644;BMP180;9970;-36.854;174.870;2024-03-23T04:39:38;100956.00;;;20.70
19644;BMP180;9970;-36.854;174.870;2024-03-23T04:42:12;100959.00;;;20.70
19644;BMP180;9970;-36.854;174.870;2024-03-23T04:44:44;100959.00;;;20.70
19644;BMP180;9970;-36.854;174.870;2024-03-23T04:47:19;100957.00;;;20.70
19644;BMP180;9970;-36.854;174.870;2024-03-23T04:49:53;100953.00;;;20.70
19644;BMP180;9970;-36.854;174.870;2024-03-23T04:52:27;100956.00;;;20.70
19644;BMP180;9970;-36.854;174.870;2024-03-23T04:54:59;100962.00;;;20.70
19644;BMP180;9970;-36.854;174.870;2024-03-23T04:57:32;100947.00;;;20.70
19644;BMP180;9970;-36.854;174.870;2024-03-23T05:00:06;100956.00;;;20.70
19644;BMP180;9970;-36.854;174.870;2024-03-23T05:02:41;100961.00;;;20.70
19644;BMP180;9970;-36.854;174.870;2024-03-23T05:05:14;100957.00;;;20.70
19644;BMP180;9970;-36.854;174.870;2024-03-23T05:07:47;100951.00;;;20.70
19644;BMP180;9970;-36.854;174.870;2024-03-23T05:10:20;100951.00;;;20.70
19644;BMP180;9970;-36.854;174.870;2024-03-23T05:12:53;100957.00;;;20.60
19644;BMP180;9970;-36.854;174.870;2024-03-23T05:15:26;100960.00;;;20.60
19644;BMP180;9970;-36.854;174.870;2024-03-23T05:17:59;100965.00;;;20.60
19644;BMP180;9970;-36.854;174.870;2024-03-23T05:20:32;100959.00;;;20.60
19644;BMP180;9970;-36.854;174.870;2024-03-23T05:23:05;100952.00;;;20.60
19644;BMP180;9970;-36.854;174.870;2024-03-23T05:25:38;100956.00;;;20.60
19644;BMP180;9970;-36.854;174.870;2024-03-23T05:28:11;100951.00;;;20.60
19644;BMP180;9970;-36.854;174.870;2024-03-23T05:30:43;100956.00;;;20.60
19644;BMP180;9970;-36.854;174.870;2024-03-23T05:33:19;100955.00;;;20.60
19644;BMP180;9970;-36.854;174.870;2024-03-23T05:36:03;100956.00;;;20.60
19644;BMP180;9970;-36.854;174.870;2024-03-23T05:38:36;100966.00;;;20.60
19644;BMP180;9970;-36.854;174.870;2024-03-23T05:41:09;100963.00;;;20.60
19644;BMP180;9970;-36.854;174.870;2024-03-23T05:43:42;100964.00;;;20.60
19644;BMP180;9970;-36.854;174.870;2024-03-23T05:46:15;100969.00;;;20.60
19644;BMP180;9970;-36.854;174.870;2024-03-23T05:48:49;100965.00;;;20.60
19644;BMP180;9970;-36.854;174.870;2024-03-23T05:51:22;100965.00;;;20.60
19644;BMP180;9970;-36.854;174.870;2024-03-23T05:53:55;100972.00;;;20.60
19644;BMP180;9970;-36.854;174.870;2024-03-23T05:56:28;100984.00;;;20.60
19644;BMP180;9970;-36.854;174.870;2024-03-23T05:59:02;100973.00;;;20.60
19644;BMP180;9970;-36.854;174.870;2024-03-23T06:01:35;100958.00;;;20.60
19644;BMP180;9970;-36.854;174.870;2024-03-23T06:04:10;100957.00;;;20.60
19644;BMP180;9970;-36.854;174.870;2024-03-23T06:06:43;100963.00;;;20.60
19644;BMP180;9970;-36.854;174.870;2024-03-23T06:09:15;100969.00;;;20.60
19644;BMP180;9970;-36.854;174.870;2024-03-23T06:11:49;100972.00;;;20.60
19644;BMP180;9970;-36.854;174.870;2024-03-23T06:14:22;100976.00;;;20.50
19644;BMP180;9970;-36.854;174.870;2024-03-23T06:17:00;100985.00;;;20.50
19644;BMP180;9970;-36.854;174.870;2024-03-23T06:19:29;100984.00;;;20.50
19644;BMP180;9970;-36.854;174.870;2024-03-23T06:22:02;100986.00;;;20.50
19644;BMP180;9970;-36.854;174.870;2024-03-23T06:24:36;100987.00;;;20.50
19644;BMP180;9970;-36.854;174.870;2024-03-23T06:27:09;100987.00;;;20.50
19644;BMP180;9970;-36.854;174.870;2024-03-23T06:29:42;100994.00;;;20.40
19644;BMP180;9970;-36.854;174.870;2024-03-23T06:32:15;101001.00;;;20.40
19644;BMP180;9970;-36.854;174.870;2024-03-23T06:34:48;101005.00;;;20.40
19644;BMP180;9970;-36.854;174.870;2024-03-23T06:37:21;101001.00;;;20.40
19644;BMP180;9970;-36.854;174.870;2024-03-23T06:39:54;100994.00;;;20.40
19644;BMP180;9970;-36.854;174.870;2024-03-23T06:42:27;100996.00;;;20.40
19644;BMP180;9970;-36.854;174.870;2024-03-23T06:45:00;101004.00;;;20.40
19644;BMP180;9970;-36.854;174.870;2024-03-23T06:47:40;101004.00;;;20.40
19644;BMP180;9970;-36.854;174.870;2024-03-23T06:50:13;101006.00;;;20.40
19644;BMP180;9970;-36.854;174.870;2024-03-23T06:52:46;101005.00;;;20.40
19644;BMP180;9970;-36.854;174.870;2024-03-23T06:55:19;101006.00;;;20.30
19644;BMP180;9970;-36.854;174.870;2024-03-23T06:57:52;101007.00;;;20.30
19644;BMP180;9970;-36.854;174.870;2024-03-23T07:00:25;101006.00;;;20.30
19644;BMP180;9970;-36.854;174.870;2024-03-23T07:02:59;101004.00;;;20.30
19644;BMP180;9970;-36.854;174.870;2024-03-23T07:05:32;100997.00;;;20.30
19644;BMP180;9970;-36.854;174.870;2024-03-23T07:08:05;101001.00;;;20.30
19644;BMP180;9970;-36.854;174.870;2024-03-23T07:10:42;101006.00;;;20.30
19644;BMP180;9970;-36.854;174.870;2024-03-23T07:13:15;100999.00;;;20.30
19644;BMP180;9970;-36.854;174.870;2024-03-23T07:15:52;101004.00;;;20.30
19644;BMP180;9970;-36.854;174.870;2024-03-23T07:18:26;100996.00;;;20.30
19644;BMP180;9970;-36.854;174.870;2024-03-23T07:20:59;100998.00;;;20.30
19644;BMP180;9970;-36.854;174.870;2024-03-23T07:23:32;101007.00;;;20.30
19644;BMP180;9970;-36.854;174.870;2024-03-23T07:26:05;101007.00;;;20.40
19644;BMP180;9970;-36.854;174.870;2024-03-23T07:28:39;101010.00;;;20.40
19644;BMP180;9970;-36.854;174.870;2024-03-23T07:31:13;101015.00;;;20.40
19644;BMP180;9970;-36.854;174.870;2024-03-23T07:33:48;101015.00;;;20.40
19644;BMP180;9970;-36.854;174.870;2024-03-23T07:36:21;101029.00;;;20.40
19644;BMP180;9970;-36.854;174.870;2024-03-23T07:38:54;101026.00;;;20.40
19644;BMP180;9970;-36.854;174.870;2024-03-23T07:41:28;101020.00;;;20.40
19644;BMP180;9970;-36.854;174.870;2024-03-23T07:44:01;101017.00;;;20.40
19644;BMP180;9970;-36.854;174.870;2024-03-23T07:46:34;101016.00;;;20.40
19644;BMP180;9970;-36.854;174.870;2024-03-23T07:49:07;101027.00;;;20.40
19644;BMP180;9970;-36.854;174.870;2024-03-23T07:51:40;101026.00;;;20.40
19644;BMP180;9970;-36.854;174.870;2024-03-23T07:54:12;101039.00;;;20.40
19644;BMP180;9970;-36.854;174.870;2024-03-23T07:56:46;101038.00;;;20.40
19644;BMP180;9970;-36.854;174.870;2024-03-23T07:59:19;101026.00;;;20.30
19644;BMP180;9970;-36.854;174.870;2024-03-23T08:01:52;101031.00;;;20.30
19644;BMP180;9970;-36.854;174.870;2024-03-23T08:04:30;101032.00;;;20.30
19644;BMP180;9970;-36.854;174.870;2024-03-23T08:07:02;101038.00;;;20.30
19644;BMP180;9970;-36.854;174.870;2024-03-23T08:09:35;101051.00;;;20.30
19644;BMP180;9970;-36.854;174.870;2024-03-23T08:12:08;101049.00;;;20.30
19644;BMP180;9970;-36.854;174.870;2024-03-23T08:14:43;101040.00;;;20.30
19644;BMP180;9970;-36.854;174.870;2024-03-23T08:17:16;101045.00;;;20.30
19644;BMP180;9970;-36.854;174.870;2024-03-23T08:19:48;101044.00;;;20.30
19644;BMP180;9970;-36.854;174.870;2024-03-23T08:22:21;101034.00;;;20.30
19644;BMP180;9970;-36.854;174.870;2024-03-23T08:24:54;101030.00;;;20.30
19644;BMP180;9970;-36.854;174.870;2024-03-23T08:27:27;101042.00;;;20.30
19644;BMP180;9970;-36.854;174.870;2024-03-23T08:30:00;101041.00;;;20.30
19644;BMP180;9970;-36.854;174.870;2024-03-23T08:32:33;101039.00;;;20.30
19644;BMP180;9970;-36.854;174.870;2024-03-23T08:35:08;101049.00;;;20.30
19644;BMP180;9970;-36.854;174.870;2024-03-23T08:37:41;101052.00;;;20.30
19644;BMP180;9970;-36.854;174.870;2024-03-23T08:40:13;101050.00;;;20.30
19644;BMP180;9970;-36.854;174.870;2024-03-23T08:42:46;101050.00;;;20.30
19644;BMP180;9970;-36.854;174.870;2024-03-23T08:45:19;101048.00;;;20.30
19644;BMP180;9970;-36.854;174.870;2024-03-23T08:47:53;101052.00;;;20.20
19644;BMP180;9970;-36.854;174.870;2024-03-23T08:50:26;101056.00;;;20.30
19644;BMP180;9970;-36.854;174.870;2024-03-23T08:52:58;101056.00;;;20.30
19644;BMP180;9970;-36.854;174.870;2024-03-23T08:55:31;101059.00;;;20.20
19644;BMP180;9970;-36.854;174.870;2024-03-23T08:58:05;101051.00;;;20.20
19644;BMP180;9970;-36.854;174.870;2024-03-23T09:00:40;101053.00;;;20.20
19644;BMP180;9970;-36.854;174.870;2024-03-23T09:03:12;101049.00;;;20.20
19644;BMP180;9970;-36.854;174.870;2024-03-23T09:05:45;101057.00;;;20.20
19644;BMP180;9970;-36.854;174.870;2024-03-23T09:08:18;101059.00;;;20.20
19644;BMP180;9970;-36.854;174.870;2024-03-23T09:10:51;101062.00;;;20.20
19644;BMP180;9970;-36.854;174.870;2024-03-23T09:13:24;101060.00;;;20.20
19644;BMP180;9970;-36.854;174.870;2024-03-23T09:15:57;101060.00;;;20.10
19644;BMP180;9970;-36.854;174.870;2024-03-23T09:18:31;101070.00;;;20.10
19644;BMP180;9970;-36.854;174.870;2024-03-23T09:21:09;101077.00;;;20.10
19644;BMP180;9970;-36.854;174.870;2024-03-23T09:23:38;101054.00;;;20.10
19644;BMP180;9970;-36.854;174.870;2024-03-23T09:26:12;101061.00;;;20.10
19644;BMP180;9970;-36.854;174.870;2024-03-23T09:28:45;101045.00;;;20.10
19644;BMP180;9970;-36.854;174.870;2024-03-23T09:31:19;101053.00;;;20.10
19644;BMP180;9970;-36.854;174.870;2024-03-23T09:33:53;101056.00;;;20.10
19644;BMP180;9970;-36.854;174.870;2024-03-23T09:36:26;101055.00;;;20.10
19644;BMP180;9970;-36.854;174.870;2024-03-23T09:38:59;101051.00;;;20.00
19644;BMP180;9970;-36.854;174.870;2024-03-23T09:41:32;101059.00;;;20.00
19644;BMP180;9970;-36.854;174.870;2024-03-23T09:44:06;101054.00;;;20.00
19644;BMP180;9970;-36.854;174.870;2024-03-23T09:46:39;101060.00;;;20.00
19644;BMP180;9970;-36.854;174.870;2024-03-23T09:49:12;101055.00;;;20.00
19644;BMP180;9970;-36.854;174.870;2024-03-23T09:51:45;101060.00;;;20.00
19644;BMP180;9970;-36.854;174.870;2024-03-23T09:54:18;101063.00;;;20.00
19644;BMP180;9970;-36.854;174.870;2024-03-23T09:56:51;101068.00;;;20.00
19644;BMP180;9970;-36.854;174.870;2024-03-23T09:59:24;101057.00;;;20.00
19644;BMP180;9970;-36.854;174.870;2024-03-23T10:01:57;101067.00;;;20.00
19644;BMP180;9970;-36.854;174.870;2024-03-23T10:04:40;101063.00;;;20.00
19644;BMP180;9970;-36.854;174.870;2024-03-23T10:07:15;101062.00;;;20.00
19644;BMP180;9970;-36.854;174.870;2024-03-23T10:09:48;101064.00;;;20.00
19644;BMP180;9970;-36.854;174.870;2024-03-23T10:12:24;101058.00;;;20.00
19644;BMP180;9970;-36.854;174.870;2024-03-23T10:14:57;101056.00;;;20.00
19644;BMP180;9970;-36.854;174.870;2024-03-23T10:17:30;101056.00;;;20.00
19644;BMP180;9970;-36.854;174.870;2024-03-23T10:20:03;101058.00;;;20.00
19644;BMP180;9970;-36.854;174.870;2024-03-23T10:22:38;101069.00;;;20.00
19644;BMP180;9970;-36.854;174.870;2024-03-23T10:25:12;101056.00;;;20.00
19644;BMP180;9970;-36.854;174.870;2024-03-23T10:27:45;101064.00;;;20.00
19644;BMP180;9970;-36.854;174.870;2024-03-23T10:30:19;101066.00;;;20.00
19644;BMP180;9970;-36.854;174.870;2024-03-23T10:33:10;101063.00;;;20.00
19644;BMP180;9970;-36.854;174.870;2024-03-23T10:35:45;101060.00;;;20.00
19644;BMP180;9970;-36.854;174.870;2024-03-23T10:38:18;101054.00;;;20.00
19644;BMP180;9970;-36.854;174.870;2024-03-23T10:40:51;101051.00;;;20.00
19644;BMP180;9970;-36.854;174.870;2024-03-23T10:43:24;101057.00;;;20.00
19644;BMP180;9970;-36.854;174.870;2024-03-23T10:45:57;101055.00;;;20.00
19644;BMP180;9970;-36.854;174.870;2024-03-23T10:48:32;101047.00;;;20.00
19644;BMP180;9970;-36.854;174.870;2024-03-23T10:51:08;101047.00;;;20.00
19644;BMP180;9970;-36.854;174.870;2024-03-23T10:53:43;101050.00;;;20.00
19644;BMP180;9970;-36.854;174.870;2024-03-23T10:56:17;101048.00;;;20.00
19644;BMP180;9970;-36.854;174.870;2024-03-23T10:58:51;101044.00;;;20.00
19644;BMP180;9970;-36.854;174.870;2024-03-23T11:01:24;101039.00;;;20.00
19644;BMP180;9970;-36.854;174.870;2024-03-23T11:03:57;101050.00;;;20.00
19644;BMP180;9970;-36.854;174.870;2024-03-23T11:06:39;101047.00;;;20.00
19644;BMP180;9970;-36.854;174.870;2024-03-23T11:12:25;101045.00;;;20.00
19644;BMP180;9970;-36.854;174.870;2024-03-23T11:15:01;101035.00;;;20.00
19644;BMP180;9970;-36.854;174.870;2024-03-23T11:17:34;101034.00;;;20.00
19644;BMP180;9970;-36.854;174.870;2024-03-23T11:20:08;101041.00;;;20.00
19644;BMP180;9970;-36.854;174.870;2024-03-23T11:22:45;101035.00;;;20.00
19644;BMP180;9970;-36.854;174.870;2024-03-23T11:25:23;101045.00;;;19.90
19644;BMP180;9970;-36.854;174.870;2024-03-23T11:27:57;101046.00;;;19.90
19644;BMP180;9970;-36.854;174.870;2024-03-23T11:30:30;101038.00;;;19.90
19644;BMP180;9970;-36.854;174.870;2024-03-23T11:33:03;101031.00;;;19.90
19644;BMP180;9970;-36.854;174.870;2024-03-23T11:35:37;101036.00;;;19.90
19644;BMP180;9970;-36.854;174.870;2024-03-23T11:38:12;101041.00;;;19.90
19644;BMP180;9970;-36.854;174.870;2024-03-23T11:40:46;101034.00;;;19.90
19644;BMP180;9970;-36.854;174.870;2024-03-23T11:43:20;101036.00;;;19.90
19644;BMP180;9970;-36.854;174.870;2024-03-23T11:45:53;101028.00;;;19.90
19644;BMP180;9970;-36.854;174.870;2024-03-23T11:48:26;101025.00;;;19.90
19644;BMP180;9970;-36.854;174.870;2024-03-23T11:50:59;101032.00;;;19.90
19644;BMP180;9970;-36.854;174.870;2024-03-23T11:53:32;101017.00;;;19.90
19644;BMP180;9970;-36.854;174.870;2024-03-23T11:56:06;101026.00;;;19.90
19644;BMP180;9970;-36.854;174.870;2024-03-23T11:58:40;101022.00;;;19.90
19644;BMP180;9970;-36.854;174.870;2024-03-23T12:01:13;101022.00;;;19.90
19644;BMP180;9970;-36.854;174.870;2024-03-23T12:03:46;101024.00;;;19.90
19644;BMP180;9970;-36.854;174.870;2024-03-23T12:06:19;101021.00;;;19.90
19644;BMP180;9970;-36.854;174.870;2024-03-23T12:08:52;101019.00;;;19.90
19644;BMP180;9970;-36.854;174.870;2024-03-23T12:11:25;101008.00;;;19.90
19644;BMP180;9970;-36.854;174.870;2024-03-23T12:13:59;101006.00;;;19.90
19644;BMP180;9970;-36.854;174.870;2024-03-23T12:16:32;101018.00;;;19.90
19644;BMP180;9970;-36.854;174.870;2024-03-23T12:19:06;101003.00;;;19.90
19644;BMP180;9970;-36.854;174.870;2024-03-23T12:21:40;101008.00;;;19.90
19644;BMP180;9970;-36.854;174.870;2024-03-23T12:24:13;101009.00;;;19.80
19644;BMP180;9970;-36.854;174.870;2024-03-23T12:26:46;101017.00;;;19.80
19644;BMP180;9970;-36.854;174.870;2024-03-23T12:29:20;101012.00;;;19.80
19644;BMP180;9970;-36.854;174.870;2024-03-23T12:31:53;101017.00;;;19.80
19644;BMP180;9970;-36.854;174.870;2024-03-23T12:34:28;101008.00;;;19.80
19644;BMP180;9970;-36.854;174.870;2024-03-23T12:37:01;101021.00;;;19.80
19644;BMP180;9970;-36.854;174.870;2024-03-23T12:39:34;101020.00;;;19.80
19644;BMP180;9970;-36.854;174.870;2024-03-23T12:42:08;101017.00;;;19.80
19644;BMP180;9970;-36.854;174.870;2024-03-23T12:44:40;101022.00;;;19.80
19644;BMP180;9970;-36.854;174.870;2024-03-23T12:47:13;101014.00;;;19.80
19644;BMP180;9970;-36.854;174.870;2024-03-23T12:49:46;101017.00;;;19.80
19644;BMP180;9970;-36.854;174.870;2024-03-23T12:52:20;101018.00;;;19.80
19644;BMP180;9970;-36.854;174.870;2024-03-23T12:55:00;101012.00;;;19.80
19644;BMP180;9970;-36.854;174.870;2024-03-23T12:57:29;101014.00;;;19.80
19644;BMP180;9970;-36.854;174.870;2024-03-23T13:00:02;101015.00;;;19.80
19644;BMP180;9970;-36.854;174.870;2024-03-23T13:02:35;101007.00;;;19.80
19644;BMP180;9970;-36.854;174.870;2024-03-23T13:05:08;101008.00;;;19.80
19644;BMP180;9970;-36.854;174.870;2024-03-23T13:07:41;101008.00;;;19.80
19644;BMP180;9970;-36.854;174.870;2024-03-23T13:10:14;101004.00;;;19.80
19644;BMP180;9970;-36.854;174.870;2024-03-23T13:12:47;101005.00;;;19.80
19644;BMP180;9970;-36.854;174.870;2024-03-23T13:15:20;101005.00;;;19.80
19644;BMP180;9970;-36.854;174.870;2024-03-23T13:17:53;101005.00;;;19.80
19644;BMP180;9970;-36.854;174.870;2024-03-23T13:20:26;100998.00;;;19.80
19644;BMP180;9970;-36.854;174.870;2024-03-23T13:22:59;101001.00;;;19.80
19644;BMP180;9970;-36.854;174.870;2024-03-23T13:25:32;101002.00;;;19.80
19644;BMP180;9970;-36.854;174.870;2024-03-23T13:28:05;101001.00;;;19.80
19644;BMP180;9970;-36.854;174.870;2024-03-23T13:30:38;101004.00;;;19.80
19644;BMP180;9970;-36.854;174.870;2024-03-23T13:33:11;101004.00;;;19.80
19644;BMP180;9970;-36.854;174.870;2024-03-23T13:35:51;101004.00;;;19.80
19644;BMP180;9970;-36.854;174.870;2024-03-23T13:38:23;101010.00;;;19.80
19644;BMP180;9970;-36.854;174.870;2024-03-23T13:40:57;101004.00;;;19.80
19644;BMP180;9970;-36.854;174.870;2024-03-23T13:43:31;100996.00;;;19.80
19644;BMP180;9970;-36.854;174.870;2024-03-23T13:46:04;100997.00;;;19.80
19644;BMP180;9970;-36.854;174.870;2024-03-23T13:48:36;100998.00;;;19.90
19644;BMP180;9970;-36.854;174.870;2024-03-23T13:51:09;100993.00;;;19.90
19644;BMP180;9970;-36.854;174.870;2024-03-23T13:53:42;100987.00;;;19.90
19644;BMP180;9970;-36.854;174.870;2024-03-23T13:56:15;100990.00;;;19.90
19644;BMP180;9970;-36.854;174.870;2024-03-23T13:58:48;100992.00;;;19.80
19644;BMP180;9970;-36.854;174.870;2024-03-23T14:01:21;100984.00;;;19.80
19644;BMP180;9970;-36.854;174.870;2024-03-23T14:03:54;100985.00;;;19.90
19644;BMP180;9970;-36.854;174.870;2024-03-23T14:06:28;100990.00;;;19.90
19644;BMP180;9970;-36.854;174.870;2024-03-23T14:09:01;100993.00;;;19.90
19644;BMP180;9970;-36.854;174.870;2024-03-23T14:11:35;100982.00;;;19.90
19644;BMP180;9970;-36.854;174.870;2024-03-23T14:14:08;100979.00;;;19.90
19644;BMP180;9970;-36.854;174.870;2024-03-23T14:16:41;100981.00;;;19.90
19644;BMP180;9970;-36.854;174.870;2024-03-23T14:19:14;100979.00;;;19.80
19644;BMP180;9970;-36.854;174.870;2024-03-23T14:21:47;100975.00;;;19.80
19644;BMP180;9970;-36.854;174.870;2024-03-23T14:24:21;100973.00;;;19.80
19644;BMP180;9970;-36.854;174.870;2024-03-23T14:26:55;100966.00;;;19.80
19644;BMP180;9970;-36.854;174.870;2024-03-23T14:29:27;100967.00;;;19.90
19644;BMP180;9970;-36.854;174.870;2024-03-23T14:32:00;100970.00;;;19.90
19644;BMP180;9970;-36.854;174.870;2024-03-23T14:34:33;100967.00;;;19.90
19644;BMP180;9970;-36.854;174.870;2024-03-23T14:37:07;100959.00;;;19.90
19644;BMP180;9970;-36.854;174.870;2024-03-23T14:39:40;100967.00;;;19.90
19644;BMP180;9970;-36.854;174.870;2024-03-23T14:42:13;100965.00;;;19.90
19644;BMP180;9970;-36.854;174.870;2024-03-23T14:44:46;100959.00;;;19.90
19644;BMP180;9970;-36.854;174.870;2024-03-23T14:47:18;100963.00;;;19.90
19644;BMP180;9970;-36.854;174.870;2024-03-23T14:49:53;100957.00;;;19.90
19644;BMP180;9970;-36.854;174.870;2024-03-23T14:52:26;100957.00;;;19.90
19644;BMP180;9970;-36.854;174.870;2024-03-23T14:54:59;100959.00;;;19.90
19644;BMP180;9970;-36.854;174.870;2024-03-23T14:57:31;100953.00;;;19.90
19644;BMP180;9970;-36.854;174.870;2024-03-23T15:00:07;100959.00;;;19.90
19644;BMP180;9970;-36.854;174.870;2024-03-23T15:02:39;100948.00;;;19.90